sensor_id;sensor_type;location;lat;lon;timestamp;P1;durP1;ratioP1;P2;durP2;ratioP2
13269;SDS011;6703;51.994;7.570;2023-02-18T00:00:54;1.60;;;1.00;;
13269;SDS011;6703;51.994;7.570;2023-02-18T00:03:24;0.40;;;0.40;;
13269;SDS011;6703;51.994;7.570;2023-02-18T00:05:53;0.23;;;0.23;;
13269;SDS011;6703;51.994;7.570;2023-02-18T00:08:21;0.57;;;0.38;;
13269;SDS011;6703;51.994;7.570;2023-02-18T00:10:49;2.10;;;0.70;;
13269;SDS011;6703;51.994;7.570;2023-02-18T00:13:16;0.47;;;0.47;;
13269;SDS011;6703;51.994;7.570;2023-02-18T00:15:44;0.45;;;0.45;;
13269;SDS011;6703;51.994;7.570;2023-02-18T00:18:12;0.30;;;0.30;;
13269;SDS011;6703;51.994;7.570;2023-02-18T00:20:41;0.35;;;0.35;;
13269;SDS011;6703;51.994;7.570;2023-02-18T00:23:09;0.25;;;0.25;;
13269;SDS011;6703;51.994;7.570;2023-02-18T00:25:36;0.47;;;0.47;;
13269;SDS011;6703;51.994;7.570;2023-02-18T00:28:04;1.50;;;1.05;;
13269;SDS011;6703;51.994;7.570;2023-02-18T00:30:32;1.30;;;0.70;;
13269;SDS011;6703;51.994;7.570;2023-02-18T00:33:00;0.70;;;0.70;;
13269;SDS011;6703;51.994;7.570;2023-02-18T00:35:27;1.13;;;1.03;;
13269;SDS011;6703;51.994;7.570;2023-02-18T00:37:57;1.00;;;0.95;;
13269;SDS011;6703;51.994;7.570;2023-02-18T00:40:25;0.20;;;0.20;;
13269;SDS011;6703;51.994;7.570;2023-02-18T00:42:52;0.13;;;0.13;;
13269;SDS011;6703;51.994;7.570;2023-02-18T00:45:20;0.40;;;0.30;;
13269;SDS011;6703;51.994;7.570;2023-02-18T00:47:48;0.40;;;0.40;;
13269;SDS011;6703;51.994;7.570;2023-02-18T00:50:15;1.85;;;1.30;;
13269;SDS011;6703;51.994;7.570;2023-02-18T00:52:43;1.30;;;1.20;;
13269;SDS011;6703;51.994;7.570;2023-02-18T00:55:12;0.77;;;0.75;;
13269;SDS011;6703;51.994;7.570;2023-02-18T00:57:40;0.75;;;0.75;;
13269;SDS011;6703;51.994;7.570;2023-02-18T01:00:08;1.30;;;1.00;;
13269;SDS011;6703;51.994;7.570;2023-02-18T01:02:37;0.80;;;0.70;;
13269;SDS011;6703;51.994;7.570;2023-02-18T01:05:04;0.33;;;0.33;;
13269;SDS011;6703;51.994;7.570;2023-02-18T01:07:32;0.70;;;0.70;;
13269;SDS011;6703;51.994;7.570;2023-02-18T01:10:00;0.50;;;0.50;;
13269;SDS011;6703;51.994;7.570;2023-02-18T01:12:29;3.17;;;1.15;;
13269;SDS011;6703;51.994;7.570;2023-02-18T01:14:57;0.63;;;0.63;;
13269;SDS011;6703;51.994;7.570;2023-02-18T01:17:24;1.60;;;0.87;;
13269;SDS011;6703;51.994;7.570;2023-02-18T01:19:52;0.70;;;0.40;;
13269;SDS011;6703;51.994;7.570;2023-02-18T01:22:21;0.40;;;0.40;;
13269;SDS011;6703;51.994;7.570;2023-02-18T01:24:48;2.10;;;1.77;;
13269;SDS011;6703;51.994;7.570;2023-02-18T01:27:16;6.72;;;2.85;;
13269;SDS011;6703;51.994;7.570;2023-02-18T01:29:45;13.25;;;3.60;;
13269;SDS011;6703;51.994;7.570;2023-02-18T01:32:13;9.40;;;4.78;;
13269;SDS011;6703;51.994;7.570;2023-02-18T01:34:41;25.48;;;8.18;;
13269;SDS011;6703;51.994;7.570;2023-02-18T01:37:09;24.95;;;10.38;;
13269;SDS011;6703;51.994;7.570;2023-02-18T01:39:36;33.33;;;12.23;;
13269;SDS011;6703;51.994;7.570;2023-02-18T01:42:05;38.67;;;14.88;;
13269;SDS011;6703;51.994;7.570;2023-02-18T01:44:33;47.65;;;16.45;;
13269;SDS011;6703;51.994;7.570;2023-02-18T01:47:02;42.17;;;15.55;;
13269;SDS011;6703;51.994;7.570;2023-02-18T01:49:31;48.10;;;19.65;;
13269;SDS011;6703;51.994;7.570;2023-02-18T01:52:01;48.28;;;20.02;;
13269;SDS011;6703;51.994;7.570;2023-02-18T01:54:31;58.38;;;21.10;;
13269;SDS011;6703;51.994;7.570;2023-02-18T01:57:00;60.72;;;21.95;;
13269;SDS011;6703;51.994;7.570;2023-02-18T01:59:30;52.37;;;21.47;;
13269;SDS011;6703;51.994;7.570;2023-02-18T02:01:59;51.97;;;21.00;;
13269;SDS011;6703;51.994;7.570;2023-02-18T02:04:28;45.45;;;19.92;;
13269;SDS011;6703;51.994;7.570;2023-02-18T02:06:56;50.10;;;21.17;;
13269;SDS011;6703;51.994;7.570;2023-02-18T02:09:25;54.08;;;22.38;;
13269;SDS011;6703;51.994;7.570;2023-02-18T02:11:58;43.97;;;18.85;;
13269;SDS011;6703;51.994;7.570;2023-02-18T02:14:43;50.35;;;21.02;;
13269;SDS011;6703;51.994;7.570;2023-02-18T02:17:19;47.63;;;20.60;;
13269;SDS011;6703;51.994;7.570;2023-02-18T02:20:00;44.15;;;18.85;;
13269;SDS011;6703;51.994;7.570;2023-02-18T02:22:55;47.95;;;20.98;;
13269;SDS011;6703;51.994;7.570;2023-02-18T02:25:39;60.15;;;22.42;;
13269;SDS011;6703;51.994;7.570;2023-02-18T02:28:21;56.07;;;22.50;;
13269;SDS011;6703;51.994;7.570;2023-02-18T02:31:13;51.42;;;20.20;;
13269;SDS011;6703;51.994;7.570;2023-02-18T02:34:12;53.47;;;18.80;;
13269;SDS011;6703;51.994;7.570;2023-02-18T02:37:01;59.95;;;23.30;;
13269;SDS011;6703;51.994;7.570;2023-02-18T02:39:37;52.08;;;20.13;;
13269;SDS011;6703;51.994;7.570;2023-02-18T02:42:07;58.53;;;20.85;;
13269;SDS011;6703;51.994;7.570;2023-02-18T02:44:43;57.00;;;18.75;;
13269;SDS011;6703;51.994;7.570;2023-02-18T02:47:16;59.28;;;20.98;;
13269;SDS011;6703;51.994;7.570;2023-02-18T02:49:51;55.03;;;20.02;;
13269;SDS011;6703;51.994;7.570;2023-02-18T02:52:22;50.40;;;19.75;;
13269;SDS011;6703;51.994;7.570;2023-02-18T02:54:54;49.00;;;19.73;;
13269;SDS011;6703;51.994;7.570;2023-02-18T03:00:10;47.78;;;18.75;;
13269;SDS011;6703;51.994;7.570;2023-02-18T03:02:40;47.17;;;17.73;;
13269;SDS011;6703;51.994;7.570;2023-02-18T03:05:19;42.95;;;15.77;;
13269;SDS011;6703;51.994;7.570;2023-02-18T03:08:03;33.55;;;12.95;;
13269;SDS011;6703;51.994;7.570;2023-02-18T03:10:38;42.10;;;15.63;;
13269;SDS011;6703;51.994;7.570;2023-02-18T03:13:14;34.38;;;13.25;;
13269;SDS011;6703;51.994;7.570;2023-02-18T03:15:47;37.28;;;14.73;;
13269;SDS011;6703;51.994;7.570;2023-02-18T03:18:18;35.30;;;13.37;;
13269;SDS011;6703;51.994;7.570;2023-02-18T03:20:52;35.67;;;13.25;;
13269;SDS011;6703;51.994;7.570;2023-02-18T03:23:23;38.57;;;15.13;;
13269;SDS011;6703;51.994;7.570;2023-02-18T03:25:54;35.92;;;13.63;;
13269;SDS011;6703;51.994;7.570;2023-02-18T03:28:23;32.60;;;13.30;;
13269;SDS011;6703;51.994;7.570;2023-02-18T03:30:54;31.45;;;13.07;;
13269;SDS011;6703;51.994;7.570;2023-02-18T03:33:25;26.92;;;12.32;;
13269;SDS011;6703;51.994;7.570;2023-02-18T03:35:56;25.10;;;11.30;;
13269;SDS011;6703;51.994;7.570;2023-02-18T03:38:25;24.38;;;10.60;;
13269;SDS011;6703;51.994;7.570;2023-02-18T03:40:55;25.60;;;10.68;;
13269;SDS011;6703;51.994;7.570;2023-02-18T03:43:23;21.95;;;9.00;;
13269;SDS011;6703;51.994;7.570;2023-02-18T03:45:51;22.77;;;9.27;;
13269;SDS011;6703;51.994;7.570;2023-02-18T03:48:19;19.35;;;7.43;;
13269;SDS011;6703;51.994;7.570;2023-02-18T03:50:47;14.18;;;5.45;;
13269;SDS011;6703;51.994;7.570;2023-02-18T03:53:16;6.72;;;3.45;;
13269;SDS011;6703;51.994;7.570;2023-02-18T03:55:44;7.53;;;4.18;;
13269;SDS011;6703;51.994;7.570;2023-02-18T03:58:11;1.10;;;1.00;;
13269;SDS011;6703;51.994;7.570;2023-02-18T04:00:39;0.93;;;0.57;;
13269;SDS011;6703;51.994;7.570;2023-02-18T04:03:07;3.50;;;1.25;;
13269;SDS011;6703;51.994;7.570;2023-02-18T04:05:35;1.63;;;0.93;;
13269;SDS011;6703;51.994;7.570;2023-02-18T04:08:03;0.80;;;0.30;;
13269;SDS011;6703;51.994;7.570;2023-02-18T04:10:32;0.80;;;0.80;;
13269;SDS011;6703;51.994;7.570;2023-02-18T04:13:00;1.60;;;1.10;;
13269;SDS011;6703;51.994;7.570;2023-02-18T04:15:28;0.43;;;0.43;;
13269;SDS011;6703;51.994;7.570;2023-02-18T04:17:55;0.90;;;0.20;;
13269;SDS011;6703;51.994;7.570;2023-02-18T04:20:23;3.40;;;0.80;;
13269;SDS011;6703;51.994;7.570;2023-02-18T04:22:51;0.30;;;0.30;;
13269;SDS011;6703;51.994;7.570;2023-02-18T04:25:19;0.20;;;0.20;;
13269;SDS011;6703;51.994;7.570;2023-02-18T04:27:48;0.60;;;0.60;;
13269;SDS011;6703;51.994;7.570;2023-02-18T04:30:16;0.10;;;0.10;;
13269;SDS011;6703;51.994;7.570;2023-02-18T04:32:44;0.10;;;0.10;;
13269;SDS011;6703;51.994;7.570;2023-02-18T04:35:12;0.00;;;0.00;;
13269;SDS011;6703;51.994;7.570;2023-02-18T04:37:39;0.20;;;0.20;;
13269;SDS011;6703;51.994;7.570;2023-02-18T04:40:07;0.10;;;0.10;;
13269;SDS011;6703;51.994;7.570;2023-02-18T04:42:36;0.20;;;0.20;;
13269;SDS011;6703;51.994;7.570;2023-02-18T04:45:05;0.20;;;0.20;;
13269;SDS011;6703;51.994;7.570;2023-02-18T04:47:33;0.10;;;0.10;;
13269;SDS011;6703;51.994;7.570;2023-02-18T04:50:01;0.32;;;0.32;;
13269;SDS011;6703;51.994;7.570;2023-02-18T04:52:29;0.05;;;0.05;;
13269;SDS011;6703;51.994;7.570;2023-02-18T04:54:57;0.03;;;0.03;;
13269;SDS011;6703;51.994;7.570;2023-02-18T04:57:25;0.38;;;0.38;;
13269;SDS011;6703;51.994;7.570;2023-02-18T04:59:53;3.70;;;0.30;;
13269;SDS011;6703;51.994;7.570;2023-02-18T05:02:22;0.10;;;0.10;;
13269;SDS011;6703;51.994;7.570;2023-02-18T05:04:50;0.65;;;0.60;;
13269;SDS011;6703;51.994;7.570;2023-02-18T05:07:18;0.60;;;0.60;;
13269;SDS011;6703;51.994;7.570;2023-02-18T05:09:46;0.10;;;0.10;;
13269;SDS011;6703;51.994;7.570;2023-02-18T05:12:13;0.00;;;0.00;;
13269;SDS011;6703;51.994;7.570;2023-02-18T05:14:41;1.30;;;0.40;;
13269;SDS011;6703;51.994;7.570;2023-02-18T05:17:09;0.00;;;0.00;;
13269;SDS011;6703;51.994;7.570;2023-02-18T05:19:38;0.50;;;0.50;;
13269;SDS011;6703;51.994;7.570;2023-02-18T05:22:06;0.00;;;0.00;;
13269;SDS011;6703;51.994;7.570;2023-02-18T05:24:34;0.30;;;0.30;;
13269;SDS011;6703;51.994;7.570;2023-02-18T05:27:02;0.00;;;0.00;;
13269;SDS011;6703;51.994;7.570;2023-02-18T05:29:29;0.00;;;0.00;;
13269;SDS011;6703;51.994;7.570;2023-02-18T05:31:57;0.00;;;0.00;;
13269;SDS011;6703;51.994;7.570;2023-02-18T05:34:25;0.22;;;0.22;;
13269;SDS011;6703;51.994;7.570;2023-02-18T05:36:54;0.20;;;0.20;;
13269;SDS011;6703;51.994;7.570;2023-02-18T05:39:22;0.00;;;0.00;;
13269;SDS011;6703;51.994;7.570;2023-02-18T05:41:50;0.00;;;0.00;;
13269;SDS011;6703;51.994;7.570;2023-02-18T05:44:18;0.00;;;0.00;;
13269;SDS011;6703;51.994;7.570;2023-02-18T05:46:59;0.40;;;0.40;;
13269;SDS011;6703;51.994;7.570;2023-02-18T05:49:27;0.00;;;0.00;;
13269;SDS011;6703;51.994;7.570;2023-02-18T05:51:56;0.10;;;0.10;;
13269;SDS011;6703;51.994;7.570;2023-02-18T05:54:24;0.10;;;0.10;;
13269;SDS011;6703;51.994;7.570;2023-02-18T05:56:53;0.20;;;0.20;;
13269;SDS011;6703;51.994;7.570;2023-02-18T05:59:21;0.00;;;0.00;;
13269;SDS011;6703;51.994;7.570;2023-02-18T06:01:48;0.00;;;0.00;;
13269;SDS011;6703;51.994;7.570;2023-02-18T06:04:16;0.70;;;0.50;;
13269;SDS011;6703;51.994;7.570;2023-02-18T06:06:44;0.00;;;0.00;;
13269;SDS011;6703;51.994;7.570;2023-02-18T06:09:13;0.00;;;0.00;;
13269;SDS011;6703;51.994;7.570;2023-02-18T06:11:42;0.00;;;0.00;;
13269;SDS011;6703;51.994;7.570;2023-02-18T06:14:10;0.35;;;0.35;;
13269;SDS011;6703;51.994;7.570;2023-02-18T06:16:38;0.35;;;0.25;;
13269;SDS011;6703;51.994;7.570;2023-02-18T06:19:05;0.20;;;0.20;;
13269;SDS011;6703;51.994;7.570;2023-02-18T06:21:33;0.10;;;0.10;;
13269;SDS011;6703;51.994;7.570;2023-02-18T06:24:01;1.30;;;0.40;;
13269;SDS011;6703;51.994;7.570;2023-02-18T06:26:30;0.00;;;0.00;;
13269;SDS011;6703;51.994;7.570;2023-02-18T06:28:58;0.20;;;0.20;;
13269;SDS011;6703;51.994;7.570;2023-02-18T06:31:26;0.00;;;0.00;;
13269;SDS011;6703;51.994;7.570;2023-02-18T06:33:54;0.00;;;0.00;;
13269;SDS011;6703;51.994;7.570;2023-02-18T06:36:22;0.00;;;0.00;;
13269;SDS011;6703;51.994;7.570;2023-02-18T06:38:50;0.00;;;0.00;;
13269;SDS011;6703;51.994;7.570;2023-02-18T06:41:19;0.00;;;0.00;;
13269;SDS011;6703;51.994;7.570;2023-02-18T06:43:48;0.00;;;0.00;;
13269;SDS011;6703;51.994;7.570;2023-02-18T06:46:16;0.00;;;0.00;;
13269;SDS011;6703;51.994;7.570;2023-02-18T06:48:44;0.00;;;0.00;;
13269;SDS011;6703;51.994;7.570;2023-02-18T06:51:12;0.00;;;0.00;;
13269;SDS011;6703;51.994;7.570;2023-02-18T06:53:41;0.00;;;0.00;;
13269;SDS011;6703;51.994;7.570;2023-02-18T06:56:09;0.00;;;0.00;;
13269;SDS011;6703;51.994;7.570;2023-02-18T06:58:36;0.00;;;0.00;;
13269;SDS011;6703;51.994;7.570;2023-02-18T07:01:06;3.20;;;0.90;;
13269;SDS011;6703;51.994;7.570;2023-02-18T07:03:33;0.00;;;0.00;;
13269;SDS011;6703;51.994;7.570;2023-02-18T07:06:01;0.00;;;0.00;;
13269;SDS011;6703;51.994;7.570;2023-02-18T07:08:29;0.10;;;0.10;;
13269;SDS011;6703;51.994;7.570;2023-02-18T07:10:58;0.00;;;0.00;;
13269;SDS011;6703;51.994;7.570;2023-02-18T07:13:26;0.00;;;0.00;;
13269;SDS011;6703;51.994;7.570;2023-02-18T07:15:53;0.00;;;0.00;;
13269;SDS011;6703;51.994;7.570;2023-02-18T07:18:25;0.00;;;0.00;;
13269;SDS011;6703;51.994;7.570;2023-02-18T07:20:52;0.00;;;0.00;;
13269;SDS011;6703;51.994;7.570;2023-02-18T07:23:20;0.00;;;0.00;;
13269;SDS011;6703;51.994;7.570;2023-02-18T07:25:48;0.00;;;0.00;;
13269;SDS011;6703;51.994;7.570;2023-02-18T07:28:15;0.00;;;0.00;;
13269;SDS011;6703;51.994;7.570;2023-02-18T07:30:43;0.00;;;0.00;;
13269;SDS011;6703;51.994;7.570;2023-02-18T07:33:11;0.10;;;0.10;;
13269;SDS011;6703;51.994;7.570;2023-02-18T07:35:41;0.00;;;0.00;;
13269;SDS011;6703;51.994;7.570;2023-02-18T07:38:08;0.00;;;0.00;;
13269;SDS011;6703;51.994;7.570;2023-02-18T07:40:36;0.00;;;0.00;;
13269;SDS011;6703;51.994;7.570;2023-02-18T07:43:04;0.00;;;0.00;;
13269;SDS011;6703;51.994;7.570;2023-02-18T07:45:31;0.00;;;0.00;;
13269;SDS011;6703;51.994;7.570;2023-02-18T07:47:59;0.00;;;0.00;;
13269;SDS011;6703;51.994;7.570;2023-02-18T07:50:27;0.00;;;0.00;;
13269;SDS011;6703;51.994;7.570;2023-02-18T07:53:01;0.00;;;0.00;;
13269;SDS011;6703;51.994;7.570;2023-02-18T07:55:30;0.00;;;0.00;;
13269;SDS011;6703;51.994;7.570;2023-02-18T07:58:11;0.00;;;0.00;;
13269;SDS011;6703;51.994;7.570;2023-02-18T08:00:39;0.00;;;0.00;;
13269;SDS011;6703;51.994;7.570;2023-02-18T08:03:07;0.00;;;0.00;;
13269;SDS011;6703;51.994;7.570;2023-02-18T08:05:34;0.00;;;0.00;;
13269;SDS011;6703;51.994;7.570;2023-02-18T08:08:04;0.00;;;0.00;;
13269;SDS011;6703;51.994;7.570;2023-02-18T08:10:32;0.00;;;0.00;;
13269;SDS011;6703;51.994;7.570;2023-02-18T08:12:59;0.00;;;0.00;;
13269;SDS011;6703;51.994;7.570;2023-02-18T08:15:27;0.00;;;0.00;;
13269;SDS011;6703;51.994;7.570;2023-02-18T08:17:54;0.32;;;0.32;;
13269;SDS011;6703;51.994;7.570;2023-02-18T08:20:23;0.00;;;0.00;;
13269;SDS011;6703;51.994;7.570;2023-02-18T08:22:51;0.00;;;0.00;;
13269;SDS011;6703;51.994;7.570;2023-02-18T08:25:20;0.00;;;0.00;;
13269;SDS011;6703;51.994;7.570;2023-02-18T08:27:55;0.00;;;0.00;;
13269;SDS011;6703;51.994;7.570;2023-02-18T08:30:22;0.10;;;0.10;;
13269;SDS011;6703;51.994;7.570;2023-02-18T08:32:50;0.00;;;0.00;;
13269;SDS011;6703;51.994;7.570;2023-02-18T08:35:18;0.00;;;0.00;;
13269;SDS011;6703;51.994;7.570;2023-02-18T08:37:46;0.00;;;0.00;;
13269;SDS011;6703;51.994;7.570;2023-02-18T08:40:20;0.00;;;0.00;;
13269;SDS011;6703;51.994;7.570;2023-02-18T08:42:48;1.00;;;0.50;;
13269;SDS011;6703;51.994;7.570;2023-02-18T08:45:16;0.00;;;0.00;;
13269;SDS011;6703;51.994;7.570;2023-02-18T08:47:44;0.15;;;0.15;;
13269;SDS011;6703;51.994;7.570;2023-02-18T08:50:31;0.00;;;0.00;;
13269;SDS011;6703;51.994;7.570;2023-02-18T08:53:00;0.50;;;0.50;;
13269;SDS011;6703;51.994;7.570;2023-02-18T08:55:30;0.00;;;0.00;;
13269;SDS011;6703;51.994;7.570;2023-02-18T08:57:58;0.00;;;0.00;;
13269;SDS011;6703;51.994;7.570;2023-02-18T09:00:25;0.00;;;0.00;;
13269;SDS011;6703;51.994;7.570;2023-02-18T09:02:54;0.00;;;0.00;;
13269;SDS011;6703;51.994;7.570;2023-02-18T09:05:21;0.00;;;0.00;;
13269;SDS011;6703;51.994;7.570;2023-02-18T09:07:49;0.00;;;0.00;;
13269;SDS011;6703;51.994;7.570;2023-02-18T09:10:17;0.00;;;0.00;;
13269;SDS011;6703;51.994;7.570;2023-02-18T09:12:46;0.00;;;0.00;;
13269;SDS011;6703;51.994;7.570;2023-02-18T09:15:14;0.00;;;0.00;;
13269;SDS011;6703;51.994;7.570;2023-02-18T09:17:42;0.00;;;0.00;;
13269;SDS011;6703;51.994;7.570;2023-02-18T09:20:09;0.00;;;0.00;;
13269;SDS011;6703;51.994;7.570;2023-02-18T09:22:38;0.00;;;0.00;;
13269;SDS011;6703;51.994;7.570;2023-02-18T09:25:07;0.00;;;0.00;;
13269;SDS011;6703;51.994;7.570;2023-02-18T09:27:34;0.00;;;0.00;;
13269;SDS011;6703;51.994;7.570;2023-02-18T09:30:04;0.00;;;0.00;;
13269;SDS011;6703;51.994;7.570;2023-02-18T09:32:33;0.00;;;0.00;;
13269;SDS011;6703;51.994;7.570;2023-02-18T09:35:01;0.00;;;0.00;;
13269;SDS011;6703;51.994;7.570;2023-02-18T09:37:28;0.00;;;0.00;;
13269;SDS011;6703;51.994;7.570;2023-02-18T09:39:56;0.00;;;0.00;;
13269;SDS011;6703;51.994;7.570;2023-02-18T09:42:27;0.00;;;0.00;;
13269;SDS011;6703;51.994;7.570;2023-02-18T09:44:57;0.00;;;0.00;;
13269;SDS011;6703;51.994;7.570;2023-02-18T09:47:30;0.00;;;0.00;;
13269;SDS011;6703;51.994;7.570;2023-02-18T09:50:03;1.50;;;0.60;;
13269;SDS011;6703;51.994;7.570;2023-02-18T09:52:34;0.40;;;0.40;;
13269;SDS011;6703;51.994;7.570;2023-02-18T09:55:13;0.10;;;0.10;;
13269;SDS011;6703;51.994;7.570;2023-02-18T09:57:44;0.00;;;0.00;;
13269;SDS011;6703;51.994;7.570;2023-02-18T10:00:14;0.15;;;0.15;;
13269;SDS011;6703;51.994;7.570;2023-02-18T10:02:50;0.40;;;0.40;;
13269;SDS011;6703;51.994;7.570;2023-02-18T10:05:22;0.15;;;0.15;;
13269;SDS011;6703;51.994;7.570;2023-02-18T10:07:52;0.20;;;0.15;;
13269;SDS011;6703;51.994;7.570;2023-02-18T10:10:24;1.80;;;0.40;;
13269;SDS011;6703;51.994;7.570;2023-02-18T10:12:58;0.20;;;0.20;;
13269;SDS011;6703;51.994;7.570;2023-02-18T10:15:27;0.00;;;0.00;;
13269;SDS011;6703;51.994;7.570;2023-02-18T10:17:57;0.40;;;0.40;;
13269;SDS011;6703;51.994;7.570;2023-02-18T10:20:26;0.60;;;0.60;;
13269;SDS011;6703;51.994;7.570;2023-02-18T10:22:56;0.10;;;0.10;;
13269;SDS011;6703;51.994;7.570;2023-02-18T10:25:26;2.00;;;0.30;;
13269;SDS011;6703;51.994;7.570;2023-02-18T10:27:54;0.10;;;0.10;;
13269;SDS011;6703;51.994;7.570;2023-02-18T10:30:26;0.00;;;0.00;;
13269;SDS011;6703;51.994;7.570;2023-02-18T10:33:00;0.00;;;0.00;;
13269;SDS011;6703;51.994;7.570;2023-02-18T10:35:38;0.08;;;0.08;;
13269;SDS011;6703;51.994;7.570;2023-02-18T10:38:08;0.00;;;0.00;;
13269;SDS011;6703;51.994;7.570;2023-02-18T10:40:45;0.10;;;0.10;;
13269;SDS011;6703;51.994;7.570;2023-02-18T10:43:20;0.00;;;0.00;;
13269;SDS011;6703;51.994;7.570;2023-02-18T10:45:54;0.00;;;0.00;;
13269;SDS011;6703;51.994;7.570;2023-02-18T10:48:31;0.00;;;0.00;;
13269;SDS011;6703;51.994;7.570;2023-02-18T10:51:11;0.20;;;0.20;;
13269;SDS011;6703;51.994;7.570;2023-02-18T10:53:41;0.00;;;0.00;;
13269;SDS011;6703;51.994;7.570;2023-02-18T10:56:12;0.00;;;0.00;;
13269;SDS011;6703;51.994;7.570;2023-02-18T10:59:00;0.10;;;0.10;;
13269;SDS011;6703;51.994;7.570;2023-02-18T11:01:28;0.10;;;0.10;;
13269;SDS011;6703;51.994;7.570;2023-02-18T11:04:05;0.40;;;0.20;;
13269;SDS011;6703;51.994;7.570;2023-02-18T11:06:37;0.00;;;0.00;;
13269;SDS011;6703;51.994;7.570;2023-02-18T11:09:06;0.10;;;0.10;;
13269;SDS011;6703;51.994;7.570;2023-02-18T11:11:51;3.30;;;0.70;;
13269;SDS011;6703;51.994;7.570;2023-02-18T11:14:37;0.00;;;0.00;;
13269;SDS011;6703;51.994;7.570;2023-02-18T11:17:08;0.05;;;0.05;;
13269;SDS011;6703;51.994;7.570;2023-02-18T11:19:45;0.00;;;0.00;;
13269;SDS011;6703;51.994;7.570;2023-02-18T11:22:19;0.50;;;0.50;;
13269;SDS011;6703;51.994;7.570;2023-02-18T11:24:50;0.00;;;0.00;;
13269;SDS011;6703;51.994;7.570;2023-02-18T11:27:21;0.00;;;0.00;;
13269;SDS011;6703;51.994;7.570;2023-02-18T11:29:52;0.00;;;0.00;;
13269;SDS011;6703;51.994;7.570;2023-02-18T11:32:21;0.10;;;0.10;;
13269;SDS011;6703;51.994;7.570;2023-02-18T11:34:54;0.00;;;0.00;;
13269;SDS011;6703;51.994;7.570;2023-02-18T11:37:22;0.00;;;0.00;;
13269;SDS011;6703;51.994;7.570;2023-02-18T11:39:52;0.20;;;0.20;;
13269;SDS011;6703;51.994;7.570;2023-02-18T11:42:21;0.00;;;0.00;;
13269;SDS011;6703;51.994;7.570;2023-02-18T11:44:52;0.10;;;0.10;;
13269;SDS011;6703;51.994;7.570;2023-02-18T11:47:22;0.00;;;0.00;;
13269;SDS011;6703;51.994;7.570;2023-02-18T11:50:00;0.20;;;0.20;;
13269;SDS011;6703;51.994;7.570;2023-02-18T11:52:34;0.00;;;0.00;;
13269;SDS011;6703;51.994;7.570;2023-02-18T11:55:05;0.00;;;0.00;;
13269;SDS011;6703;51.994;7.570;2023-02-18T11:57:36;0.10;;;0.10;;
13269;SDS011;6703;51.994;7.570;2023-02-18T12:00:15;0.00;;;0.00;;
13269;SDS011;6703;51.994;7.570;2023-02-18T12:02:47;0.30;;;0.30;;
13269;SDS011;6703;51.994;7.570;2023-02-18T12:05:20;0.00;;;0.00;;
13269;SDS011;6703;51.994;7.570;2023-02-18T12:07:50;0.00;;;0.00;;
13269;SDS011;6703;51.994;7.570;2023-02-18T12:10:21;1.20;;;0.70;;
13269;SDS011;6703;51.994;7.570;2023-02-18T12:12:53;0.00;;;0.00;;
13269;SDS011;6703;51.994;7.570;2023-02-18T12:15:26;0.30;;;0.30;;
13269;SDS011;6703;51.994;7.570;2023-02-18T12:18:19;0.00;;;0.00;;
13269;SDS011;6703;51.994;7.570;2023-02-18T12:21:02;0.00;;;0.00;;
13269;SDS011;6703;51.994;7.570;2023-02-18T12:23:40;0.00;;;0.00;;
13269;SDS011;6703;51.994;7.570;2023-02-18T12:26:16;0.20;;;0.20;;
13269;SDS011;6703;51.994;7.570;2023-02-18T12:28:52;0.00;;;0.00;;
13269;SDS011;6703;51.994;7.570;2023-02-18T12:31:36;0.00;;;0.00;;
13269;SDS011;6703;51.994;7.570;2023-02-18T12:34:14;0.10;;;0.10;;
13269;SDS011;6703;51.994;7.570;2023-02-18T12:36:55;0.00;;;0.00;;
13269;SDS011;6703;51.994;7.570;2023-02-18T12:39:30;0.00;;;0.00;;
13269;SDS011;6703;51.994;7.570;2023-02-18T12:42:09;0.00;;;0.00;;
13269;SDS011;6703;51.994;7.570;2023-02-18T12:44:49;3.10;;;0.60;;
13269;SDS011;6703;51.994;7.570;2023-02-18T12:47:30;0.10;;;0.10;;
13269;SDS011;6703;51.994;7.570;2023-02-18T12:50:15;0.10;;;0.10;;
13269;SDS011;6703;51.994;7.570;2023-02-18T12:52:56;0.03;;;0.03;;
13269;SDS011;6703;51.994;7.570;2023-02-18T12:55:35;1.90;;;1.10;;
13269;SDS011;6703;51.994;7.570;2023-02-18T12:58:12;0.80;;;0.60;;
13269;SDS011;6703;51.994;7.570;2023-02-18T13:00:51;0.00;;;0.00;;
13269;SDS011;6703;51.994;7.570;2023-02-18T13:03:32;0.05;;;0.05;;
13269;SDS011;6703;51.994;7.570;2023-02-18T13:06:17;0.00;;;0.00;;
13269;SDS011;6703;51.994;7.570;2023-02-18T13:08:53;0.10;;;0.10;;
13269;SDS011;6703;51.994;7.570;2023-02-18T13:11:32;0.00;;;0.00;;
13269;SDS011;6703;51.994;7.570;2023-02-18T13:14:03;0.00;;;0.00;;
13269;SDS011;6703;51.994;7.570;2023-02-18T13:16:38;0.00;;;0.00;;
13269;SDS011;6703;51.994;7.570;2023-02-18T13:19:10;0.20;;;0.20;;
13269;SDS011;6703;51.994;7.570;2023-02-18T13:21:42;0.15;;;0.15;;
13269;SDS011;6703;51.994;7.570;2023-02-18T13:24:13;0.00;;;0.00;;
13269;SDS011;6703;51.994;7.570;2023-02-18T13:26:45;1.23;;;0.70;;
13269;SDS011;6703;51.994;7.570;2023-02-18T13:29:18;0.00;;;0.00;;
13269;SDS011;6703;51.994;7.570;2023-02-18T13:31:51;0.00;;;0.00;;
13269;SDS011;6703;51.994;7.570;2023-02-18T13:34:30;0.00;;;0.00;;
13269;SDS011;6703;51.994;7.570;2023-02-18T13:37:02;0.10;;;0.10;;
13269;SDS011;6703;51.994;7.570;2023-02-18T13:39:35;0.00;;;0.00;;
13269;SDS011;6703;51.994;7.570;2023-02-18T13:42:11;0.00;;;0.00;;
13269;SDS011;6703;51.994;7.570;2023-02-18T13:45:04;0.10;;;0.10;;
13269;SDS011;6703;51.994;7.570;2023-02-18T13:47:49;0.10;;;0.10;;
13269;SDS011;6703;51.994;7.570;2023-02-18T13:50:28;0.00;;;0.00;;
13269;SDS011;6703;51.994;7.570;2023-02-18T13:53:11;0.00;;;0.00;;
13269;SDS011;6703;51.994;7.570;2023-02-18T13:55:55;0.00;;;0.00;;
13269;SDS011;6703;51.994;7.570;2023-02-18T13:58:28;0.00;;;0.00;;
13269;SDS011;6703;51.994;7.570;2023-02-18T14:01:00;0.20;;;0.20;;
13269;SDS011;6703;51.994;7.570;2023-02-18T14:03:34;0.50;;;0.50;;
13269;SDS011;6703;51.994;7.570;2023-02-18T14:06:19;0.00;;;0.00;;
13269;SDS011;6703;51.994;7.570;2023-02-18T14:09:00;0.08;;;0.08;;
13269;SDS011;6703;51.994;7.570;2023-02-18T14:11:44;0.00;;;0.00;;
13269;SDS011;6703;51.994;7.570;2023-02-18T14:14:33;0.00;;;0.00;;
13269;SDS011;6703;51.994;7.570;2023-02-18T14:22:59;0.00;;;0.00;;
13269;SDS011;6703;51.994;7.570;2023-02-18T14:25:34;0.00;;;0.00;;
13269;SDS011;6703;51.994;7.570;2023-02-18T14:31:16;0.00;;;0.00;;
13269;SDS011;6703;51.994;7.570;2023-02-18T14:34:05;0.00;;;0.00;;
13269;SDS011;6703;51.994;7.570;2023-02-18T14:36:45;0.20;;;0.20;;
13269;SDS011;6703;51.994;7.570;2023-02-18T14:39:23;0.00;;;0.00;;
13269;SDS011;6703;51.994;7.570;2023-02-18T14:42:02;0.00;;;0.00;;
13269;SDS011;6703;51.994;7.570;2023-02-18T14:44:44;0.40;;;0.20;;
13269;SDS011;6703;51.994;7.570;2023-02-18T14:47:23;0.30;;;0.30;;
13269;SDS011;6703;51.994;7.570;2023-02-18T14:49:54;0.22;;;0.22;;
13269;SDS011;6703;51.994;7.570;2023-02-18T14:52:27;0.10;;;0.10;;
13269;SDS011;6703;51.994;7.570;2023-02-18T14:54:58;1.40;;;0.20;;
13269;SDS011;6703;51.994;7.570;2023-02-18T14:57:30;0.30;;;0.30;;
13269;SDS011;6703;51.994;7.570;2023-02-18T15:00:02;1.30;;;1.00;;
13269;SDS011;6703;51.994;7.570;2023-02-18T15:02:34;0.00;;;0.00;;
13269;SDS011;6703;51.994;7.570;2023-02-18T15:05:10;0.00;;;0.00;;
13269;SDS011;6703;51.994;7.570;2023-02-18T15:07:39;0.10;;;0.10;;
13269;SDS011;6703;51.994;7.570;2023-02-18T15:10:12;0.00;;;0.00;;
13269;SDS011;6703;51.994;7.570;2023-02-18T15:12:41;0.00;;;0.00;;
13269;SDS011;6703;51.994;7.570;2023-02-18T15:15:11;0.00;;;0.00;;
13269;SDS011;6703;51.994;7.570;2023-02-18T15:17:43;0.03;;;0.03;;
13269;SDS011;6703;51.994;7.570;2023-02-18T15:20:12;0.00;;;0.00;;
13269;SDS011;6703;51.994;7.570;2023-02-18T15:22:41;0.10;;;0.10;;
13269;SDS011;6703;51.994;7.570;2023-02-18T15:25:10;0.75;;;0.60;;
13269;SDS011;6703;51.994;7.570;2023-02-18T15:27:40;0.00;;;0.00;;
13269;SDS011;6703;51.994;7.570;2023-02-18T15:30:20;0.40;;;0.40;;
13269;SDS011;6703;51.994;7.570;2023-02-18T15:32:51;0.00;;;0.00;;
13269;SDS011;6703;51.994;7.570;2023-02-18T15:35:21;0.00;;;0.00;;